Time;durP1;ratioP1;P1;durP2;ratioP2;P2;SDS_P1;SDS_P2;PMS_P1;PMS_P2;Temp;Humidity;BMP_temperature;BMP_pressure;BME280_temperature;BME280_humidity;BME280_pressure;Samples;Min_cycle;Max_cycle;Signal;HPM_P1;HPM_P2
2022/07/21 00:01:18;;;;;;;25.23;19.25;;;;;;;20.16;100.00;69015.91;5064099;28;20139;-78
2022/07/21 00:03:43;;;;;;;25.92;19.67;;;;;;;20.22;100.00;69023.31;5066567;28;20032;-79
2022/07/21 00:06:09;;;;;;;24.95;20.90;;;;;;;20.26;100.00;69027.34;5067795;28;20064;-79
2022/07/21 00:08:34;;;;;;;25.75;21.00;;;;;;;;;;5064795;28;20065;-78
2022/07/21 00:10:59;;;;;;;23.00;20.30;;;;;;;;;;5065547;28;20040;-79
2022/07/21 00:13:25;;;;;;;26.57;20.97;;;;;;;20.48;100.00;69046.50;5068027;28;20040;-79
2022/07/21 00:15:50;;;;;;;26.05;23.10;;;;;;;20.55;100.00;69062.09;5066026;28;20809;-80
2022/07/21 00:18:16;;;;;;;27.92;21.90;;;;;;;;;;5062490;28;20069;-82
2022/07/21 00:20:41;;;;;;;26.55;22.20;;;;;;;20.48;100.00;69052.50;5054372;28;20040;-78
2022/07/21 00:23:06;;;;;;;29.45;21.02;;;;;;;;;;5067509;28;20060;-78
2022/07/21 00:25:32;;;;;;;29.33;24.13;;;;;;;20.45;100.00;69051.75;5066883;28;20033;-77
2022/07/21 00:27:57;;;;;;;29.63;23.33;;;;;;;20.24;100.00;69020.22;5066525;28;20275;-78
2022/07/21 00:30:23;;;;;;;28.77;23.55;;;;;;;20.34;100.00;69036.50;5065450;28;20040;-78
2022/07/21 00:32:48;;;;;;;30.23;23.08;;;;;;;20.14;100.00;69013.59;5065696;28;20516;-77
2022/07/21 00:35:14;;;;;;;19.35;14.40;;;;;;;19.96;100.00;68994.16;5066040;28;20040;-78
2022/07/21 00:37:40;;;;;;;18.80;13.98;;;;;;;19.92;100.00;68989.03;5067513;28;20043;-78
2022/07/21 00:40:08;;;;;;;17.88;14.52;;;;;;;19.78;100.00;68976.31;5052882;28;20032;-77
2022/07/21 00:42:33;;;;;;;22.80;14.38;;;;;;;19.70;100.00;68964.44;5064784;28;20036;-77
2022/07/21 00:44:59;;;;;;;17.60;14.65;;;;;;;;;;5067066;28;20067;-78
2022/07/21 00:47:27;;;;;;;19.95;15.80;;;;;;;19.69;100.00;68966.59;5066140;28;20481;-77
2022/07/21 00:49:54;;;;;;;21.67;16.03;;;;;;;19.70;100.00;68967.72;5048242;28;20051;-78
2022/07/21 00:52:19;;;;;;;20.33;16.40;;;;;;;19.61;100.00;68949.88;5065596;28;20128;-79
2022/07/21 00:54:45;;;;;;;18.73;16.05;;;;;;;;;;5065984;28;20584;-77
2022/07/21 00:57:12;;;;;;;17.90;13.93;;;;;;;19.39;100.00;68930.72;5066338;28;20048;-76
2022/07/21 00:59:38;;;;;;;17.80;15.05;;;;;;;19.34;100.00;68924.44;5065791;28;20408;-79
2022/07/21 01:02:03;;;;;;;14.80;10.73;;;;;;;;;;5064514;28;20036;-78
2022/07/21 01:04:29;;;;;;;10.50;7.65;;;;;;;19.31;100.00;68921.03;5066623;28;20133;-77
2022/07/21 01:06:55;;;;;;;10.38;7.22;;;;;;;19.27;100.00;68916.44;5060975;28;20056;-78
2022/07/21 01:09:22;;;;;;;10.38;7.68;;;;;;;19.35;100.00;68928.84;5056311;28;20078;-80
2022/07/21 01:11:48;;;;;;;11.13;8.88;;;;;;;19.28;100.00;68920.84;5062393;28;20263;-79
2022/07/21 01:14:14;;;;;;;11.65;9.70;;;;;;;19.30;100.00;68919.84;5065089;28;20040;-79
2022/07/21 01:16:41;;;;;;;13.38;11.02;;;;;;;19.36;100.00;68926.72;5062306;28;20035;-79
2022/07/21 01:19:07;;;;;;;14.10;11.00;;;;;;;19.42;100.00;68933.59;5063630;28;20071;-78
2022/07/21 01:21:34;;;;;;;13.57;10.82;;;;;;;19.41;100.00;68931.88;5077660;28;20597;-78
2022/07/21 01:24:00;;;;;;;13.48;11.18;;;;;;;19.39;100.00;68930.13;5064819;28;20130;-78
2022/07/21 01:26:27;;;;;;;12.70;10.40;;;;;;;19.27;100.00;68922.41;5066937;28;20066;-77
2022/07/21 01:28:52;;;;;;;15.38;10.05;;;;;;;;;;5064742;28;20048;-78
2022/07/21 01:31:17;;;;;;;9.45;6.93;;;;;;;18.98;100.00;68884.44;5064020;28;20576;-77
2022/07/21 01:33:43;;;;;;;7.40;5.47;;;;;;;18.94;100.00;68879.88;5065611;28;20036;-78
2022/07/21 01:36:09;;;;;;;6.70;5.40;;;;;;;18.99;100.00;68885.59;5066173;28;20124;-79
2022/07/21 01:41:30;;;;;;;7.45;5.18;;;;;;;18.92;100.00;68877.59;5064286;28;20075;-77
2022/07/21 01:44:07;;;;;;;7.93;5.57;;;;;;;19.06;100.00;68896.28;5062789;28;20042;-77
2022/07/21 01:46:35;;;;;;;6.43;5.05;;;;;;;19.08;100.00;68895.88;5047536;28;20120;-78
2022/07/21 01:49:00;;;;;;;7.53;5.15;;;;;;;19.02;100.00;68888.44;5064845;28;20083;-78
2022/07/21 01:51:26;;;;;;;7.88;5.35;;;;;;;18.96;100.00;68882.19;5063662;28;20056;-77
2022/07/21 01:53:52;;;;;;;8.85;6.00;;;;;;;19.13;100.00;68907.00;5065265;28;20044;-78
2022/07/21 01:56:21;;;;;;;6.28;4.60;;;;;;;19.16;100.00;68905.03;5064071;28;20028;-78
2022/07/21 01:58:46;;;;;;;6.00;4.95;;;;;;;;;;5064782;28;20033;-78
2022/07/21 02:01:11;;;;;;;6.15;5.18;;;;;;;19.16;100.00;68904.44;5063893;28;20032;-79
2022/07/21 02:03:37;;;;;;;7.47;5.57;;;;;;;19.21;100.00;68909.59;5063664;28;20041;-78
2022/07/21 02:06:05;;;;;;;6.47;5.70;;;;;;;19.07;100.00;68894.72;5065028;28;20124;-78
2022/07/21 02:08:31;;;;;;;8.13;6.70;;;;;;;19.16;100.00;68899.63;5062087;28;20040;-78
2022/07/21 02:10:57;;;;;;;8.15;6.40;;;;;;;19.12;100.00;68900.44;5062230;28;20455;-79
2022/07/21 02:13:23;;;;;;;10.90;8.77;;;;;;;19.12;100.00;68903.13;5064727;28;20033;-78
2022/07/21 02:15:48;;;;;;;13.88;10.30;;;;;;;19.16;100.00;68910.41;5065430;28;20067;-78
2022/07/21 02:18:13;;;;;;;19.30;12.63;;;;;;;19.05;100.00;68897.28;5061421;28;20116;-78
2022/07/21 02:20:39;;;;;;;18.15;13.88;;;;;;;19.08;100.00;68895.31;5056109;28;20037;-78
2022/07/21 02:23:04;;;;;;;20.27;15.32;;;;;;;19.12;100.00;68902.56;5063965;28;20387;-78
2022/07/21 02:25:30;;;;;;;18.85;15.70;;;;;;;19.14;100.00;68905.44;5064400;28;20040;-78
2022/07/21 02:27:55;;;;;;;22.00;16.38;;;;;;;19.08;100.00;68901.28;5063382;28;20071;-78
2022/07/21 02:30:21;;;;;;;23.38;16.98;;;;;;;19.14;100.00;68896.75;5064175;28;20041;-79
2022/07/21 02:32:46;;;;;;;22.77;17.33;;;;;;;19.12;100.00;68900.44;5047966;28;20219;-78
2022/07/21 02:35:11;;;;;;;21.75;17.27;;;;;;;;;;5067882;28;20066;-78
2022/07/21 02:37:38;;;;;;;22.02;16.75;;;;;;;19.11;100.00;68893.91;5067256;28;20047;-78
2022/07/21 02:40:04;;;;;;;21.45;17.08;;;;;;;19.07;100.00;68894.16;5065759;28;20041;-78
2022/07/21 02:42:29;;;;;;;22.98;17.40;;;;;;;19.05;100.00;68891.88;5061594;28;20405;-78
2022/07/21 02:44:55;;;;;;;22.52;18.85;;;;;;;19.04;100.00;68891.28;5066714;28;20039;-78
2022/07/21 02:47:20;;;;;;;23.30;17.90;;;;;;;19.05;100.00;68891.88;5068796;28;20465;-78
2022/07/21 02:49:47;;;;;;;23.70;19.02;;;;;;;19.07;100.00;68894.72;5068288;28;20044;-79
2022/07/21 02:52:12;;;;;;;24.15;18.58;;;;;;;19.08;100.00;68895.88;5065078;28;20035;-78
2022/07/21 02:54:38;;;;;;;22.70;18.95;;;;;;;;;;5067570;28;20036;-79
2022/07/21 02:57:03;;;;;;;23.42;18.50;;;;;;;19.05;100.00;68897.84;5064968;28;20056;-78
2022/07/21 02:59:29;;;;;;;25.17;20.13;;;;;;;19.03;100.00;68884.75;5069057;28;20045;-78
2022/07/21 03:01:54;;;;;;;23.13;19.13;;;;;;;19.04;100.00;68890.72;5067475;28;20044;-78
2022/07/21 03:04:19;;;;;;;23.88;19.15;;;;;;;18.92;100.00;68877.59;5068204;28;20120;-79
2022/07/21 03:06:45;;;;;;;23.92;19.67;;;;;;;18.94;100.00;68879.88;5066597;28;20036;-78
2022/07/21 03:09:10;;;;;;;25.05;20.67;;;;;;;18.93;100.00;68879.31;5067286;28;20573;-78
2022/07/21 03:11:36;;;;;;;25.50;20.67;;;;;;;18.89;100.00;68868.78;5065503;28;20040;-79
2022/07/21 03:14:01;;;;;;;25.05;19.63;;;;;;;18.83;100.00;68870.59;5066515;28;20056;-79
2022/07/21 03:16:27;;;;;;;26.33;19.83;;;;;;;18.86;100.00;68870.75;5049500;28;20058;-80
2022/07/21 03:18:53;;;;;;;25.23;19.55;;;;;;;18.95;100.00;68881.03;5067623;28;20025;-78
2022/07/21 03:21:18;;;;;;;27.23;22.08;;;;;;;18.93;100.00;68879.31;5068101;28;20131;-78
2022/07/21 03:23:45;;;;;;;25.63;20.02;;;;;;;18.92;100.00;68880.28;5068054;28;20120;-79
2022/07/21 03:26:14;;;;;;;26.95;21.35;;;;;;;18.89;100.00;68874.16;5068157;28;20048;-79
2022/07/21 03:28:40;;;;;;;28.15;21.77;;;;;;;;;;5066336;28;20443;-78
2022/07/21 03:31:05;;;;;;;28.60;23.15;;;;;;;;;;5049329;28;20182;-79
2022/07/21 03:33:31;;;;;;;30.83;22.83;;;;;;;;;;5067100;28;20044;-79
2022/07/21 03:35:58;;;;;;;28.70;21.27;;;;;;;18.74;100.00;68857.03;5068112;28;20154;-79
2022/07/21 03:38:23;;;;;;;32.35;25.27;;;;;;;18.81;100.00;68865.03;5067718;28;20094;-79
2022/07/21 03:40:49;;;;;;;30.77;23.30;;;;;;;18.82;100.00;68866.19;5067316;28;20805;-79
2022/07/21 03:43:14;;;;;;;31.85;24.08;;;;;;;;;;5066663;28;20061;-79
2022/07/21 03:45:40;;;;;;;32.28;24.65;;;;;;;18.87;100.00;68871.88;5066212;28;20124;-78
2022/07/21 03:48:06;;;;;;;33.25;25.98;;;;;;;18.85;100.00;68869.59;5063509;28;20086;-80
2022/07/21 03:50:32;;;;;;;33.97;25.08;;;;;;;;;;5065708;28;20048;-79
2022/07/21 03:52:59;;;;;;;33.72;23.98;;;;;;;18.81;100.00;68870.41;5065640;28;20485;-79
2022/07/21 03:55:24;;;;;;;33.85;25.52;;;;;;;18.86;100.00;68870.75;5067583;28;20044;-79
2022/07/21 03:57:55;;;;;;;31.77;25.25;;;;;;;18.79;100.00;68865.44;5066170;28;20374;-79
2022/07/21 04:00:33;;;;;;;33.63;25.17;;;;;;;18.89;100.00;68874.16;5064612;28;20135;-79
2022/07/21 04:02:59;;;;;;;32.60;26.50;;;;;;;;;;5048907;28;20044;-78
2022/07/21 04:05:25;;;;;;;32.30;23.05;;;;;;;18.85;100.00;68869.59;5062081;28;20036;-79
2022/07/21 04:07:52;;;;;;;32.13;24.25;;;;;;;18.80;100.00;68864.47;5060045;28;20044;-79
2022/07/21 04:10:22;;;;;;;34.50;23.77;;;;;;;18.83;100.00;68867.88;5066302;28;20040;-80
2022/07/21 04:12:48;;;;;;;31.48;26.20;;;;;;;18.81;100.00;68868.28;5058425;28;20555;-79
2022/07/21 04:15:14;;;;;;;32.25;24.52;;;;;;;18.75;100.00;68860.88;5063227;28;20039;-79
2022/07/21 04:17:40;;;;;;;31.63;23.90;;;;;;;18.75;100.00;68858.75;5061707;28;20032;-79
2022/07/21 04:20:07;;;;;;;32.10;26.20;;;;;;;18.78;100.00;68864.31;5047349;28;20060;-78
2022/07/21 04:22:33;;;;;;;32.15;24.33;;;;;;;18.78;100.00;68861.59;5057448;28;20037;-78
2022/07/21 04:24:59;;;;;;;34.08;25.77;;;;;;;;;;5066426;28;20109;-80
2022/07/21 04:27:25;;;;;;;30.25;25.05;;;;;;;18.84;100.00;68863.63;5064245;28;20075;-79
2022/07/21 04:29:50;;;;;;;32.85;24.98;;;;;;;18.79;100.00;68863.31;5067516;28;20060;-79
2022/07/21 04:32:16;;;;;;;30.48;23.90;;;;;;;18.80;100.00;68863.88;5070413;28;20044;-78
2022/07/21 04:34:41;;;;;;;30.15;23.65;;;;;;;;;;5047708;28;20039;-79
2022/07/21 04:37:06;;;;;;;32.10;23.35;;;;;;;18.70;100.00;68856.28;5063350;28;20040;-79
2022/07/21 04:39:32;;;;;;;28.83;22.73;;;;;;;18.64;100.00;68854.84;5064663;28;20042;-78
2022/07/21 04:41:57;;;;;;;29.75;23.85;;;;;;;;;;5063718;28;20528;-78
2022/07/21 04:44:23;;;;;;;33.45;25.65;;;;;;;18.82;100.00;68866.75;5056894;28;20497;-79
2022/07/21 04:46:48;;;;;;;32.70;25.27;;;;;;;18.82;100.00;68868.88;5066221;28;20659;-79
2022/07/21 04:49:14;;;;;;;32.72;25.98;;;;;;;18.82;100.00;68868.88;5067882;28;20044;-79
2022/07/21 04:51:40;;;;;;;31.63;24.23;;;;;;;18.78;100.00;68862.16;5048360;28;20981;-81
2022/07/21 04:54:05;;;;;;;32.58;24.90;;;;;;;18.82;100.00;68866.19;5064439;28;20036;-80
2022/07/21 04:56:32;;;;;;;33.80;28.48;;;;;;;18.87;100.00;68874.56;5062958;28;20047;-79
2022/07/21 04:58:58;;;;;;;36.72;27.80;;;;;;;;;;5063713;28;20036;-79
2022/07/21 05:01:23;;;;;;;35.92;28.92;;;;;;;;;;5067117;28;20513;-81
2022/07/21 05:03:49;;;;;;;34.13;25.33;;;;;;;18.74;100.00;68851.66;5067694;28;20585;-79
2022/07/21 05:06:14;;;;;;;32.42;26.45;;;;;;;18.64;100.00;68846.75;5067695;28;20369;-80
2022/07/21 05:08:39;;;;;;;33.60;25.73;;;;;;;18.76;100.00;68859.31;5063953;28;20048;-79
2022/07/21 05:11:05;;;;;;;32.00;25.02;;;;;;;18.76;100.00;68859.31;5063252;28;20052;-80
2022/07/21 05:13:30;;;;;;;34.72;26.00;;;;;;;18.74;100.00;68851.66;5066591;28;20044;-80
2022/07/21 05:15:55;;;;;;;31.83;24.38;;;;;;;18.69;100.00;68855.13;5066895;28;20465;-79
2022/07/21 05:18:21;;;;;;;31.08;23.60;;;;;;;18.71;100.00;68854.72;5064251;28;20056;-79
2022/07/21 05:20:46;;;;;;;33.85;24.27;;;;;;;;;;5059377;28;20083;-80
2022/07/21 05:23:11;;;;;;;33.33;24.55;;;;;;;;;;5058978;28;20120;-80
2022/07/21 05:25:37;;;;;;;33.43;24.80;;;;;;;18.82;100.00;68866.19;5068122;28;20044;-80
2022/07/21 05:28:03;;;;;;;33.90;27.00;;;;;;;18.81;100.00;68865.59;5067276;28;20328;-79
2022/07/21 05:30:28;;;;;;;38.65;27.77;;;;;;;;;;5067306;28;20568;-80
2022/07/21 05:32:54;;;;;;;38.30;28.80;;;;;;;18.94;100.00;68879.88;5065576;28;20052;-79
2022/07/21 05:35:19;;;;;;;36.42;28.63;;;;;;;18.92;100.00;68877.59;5053031;28;20059;-80
2022/07/21 05:37:45;;;;;;;35.53;29.45;;;;;;;;;;5042511;28;20333;-80
2022/07/21 05:40:11;;;;;;;35.97;26.75;;;;;;;18.91;100.00;68877.03;5064436;28;20040;-79
2022/07/21 05:42:37;;;;;;;41.70;29.70;;;;;;;18.95;100.00;68883.72;5061307;28;20647;-79
2022/07/21 05:45:03;;;;;;;37.47;28.90;;;;;;;19.03;100.00;68889.59;5067223;28;20048;-79
2022/07/21 05:47:31;;;;;;;39.28;28.17;;;;;;;18.96;100.00;68881.59;5065530;28;20033;-79
2022/07/21 05:49:56;;;;;;;36.25;29.30;;;;;;;;;;5065815;28;20083;-80
2022/07/21 05:52:21;;;;;;;37.20;27.52;;;;;;;18.86;100.00;68870.75;5064876;28;20040;-80
2022/07/21 05:54:47;;;;;;;36.97;27.45;;;;;;;18.86;100.00;68873.44;5064370;28;20661;-79
2022/07/21 05:57:12;;;;;;;37.88;27.85;;;;;;;18.87;100.00;68872.47;5066100;28;20043;-80
2022/07/21 05:59:38;;;;;;;40.17;29.63;;;;;;;18.93;100.00;68878.72;5064199;28;20044;-79
2022/07/21 06:02:03;;;;;;;37.15;27.98;;;;;;;18.89;100.00;68879.56;5066246;28;20040;-80
2022/07/21 06:04:28;;;;;;;38.10;30.15;;;;;;;18.89;100.00;68874.16;5067008;28;20060;-80
2022/07/21 06:06:54;;;;;;;38.78;28.13;;;;;;;18.86;100.00;68873.44;5049752;28;20505;-80
2022/07/21 06:09:21;;;;;;;38.53;28.00;;;;;;;18.96;100.00;68882.19;5085955;22;20044;-78
2022/07/21 06:11:46;;;;;;;37.63;28.63;;;;;;;18.90;100.00;68870.50;5065353;28;20090;-77
2022/07/21 06:14:12;;;;;;;39.38;31.33;;;;;;;19.07;100.00;68888.75;5062663;28;20041;-77
2022/07/21 06:16:37;;;;;;;35.17;28.00;;;;;;;;;;5045675;28;20120;-75
2022/07/21 06:19:04;;;;;;;36.35;28.80;;;;;;;19.07;100.00;68894.72;5056489;28;20051;-77
2022/07/21 06:21:30;;;;;;;37.78;27.30;;;;;;;19.10;100.00;68902.97;5044556;28;20048;-77
2022/07/21 06:23:55;;;;;;;37.08;31.08;;;;;;;;;;5050703;28;20037;-76
2022/07/21 06:26:20;;;;;;;40.53;30.00;;;;;;;;;;5049557;28;20061;-78
2022/07/21 06:28:46;;;;;;;36.50;26.42;;;;;;;19.03;100.00;68890.16;5047990;28;20041;-77
2022/07/21 06:31:11;;;;;;;35.90;27.55;;;;;;;;;;5044539;28;20413;-78
2022/07/21 06:33:36;;;;;;;37.75;27.98;;;;;;;19.04;100.00;68882.63;5043425;28;20065;-77
2022/07/21 06:36:02;;;;;;;36.22;27.40;;;;;;;18.97;100.00;68886.00;5044899;28;20107;-77
2022/07/21 06:38:28;;;;;;;34.97;25.77;;;;;;;19.01;100.00;68882.47;5039322;28;20750;-77
2022/07/21 06:40:53;;;;;;;38.85;30.00;;;;;;;;;;5042260;28;20049;-77
2022/07/21 06:43:19;;;;;;;36.42;30.17;;;;;;;19.24;100.00;68913.00;5038700;28;20132;-77
2022/07/21 06:45:44;;;;;;;36.22;28.45;;;;;;;;;;5037796;28;20037;-76
2022/07/21 06:48:09;;;;;;;35.75;27.90;;;;;;;19.30;100.00;68915.03;5037081;28;20049;-77
2022/07/21 06:50:36;;;;;;;35.13;28.15;;;;;;;19.30;100.00;68919.84;5041074;28;20072;-76
2022/07/21 06:53:02;;;;;;;36.85;29.77;;;;;;;19.26;100.00;68910.47;5039736;28;20065;-77
2022/07/21 06:55:28;;;;;;;35.67;29.02;;;;;;;19.21;100.00;68910.16;5063968;28;20048;-77
2022/07/21 06:57:54;;;;;;;34.63;28.08;;;;;;;19.19;100.00;68907.88;5042362;28;20048;-76
2022/07/21 07:00:20;;;;;;;36.45;28.20;;;;;;;19.28;100.00;68917.59;5045940;28;20037;-76
2022/07/21 07:02:45;;;;;;;35.63;29.65;;;;;;;;;;5043120;28;20088;-77
2022/07/21 07:05:10;;;;;;;34.60;28.23;;;;;;;;;;5049245;28;20048;-77
2022/07/21 07:07:36;;;;;;;36.00;28.83;;;;;;;;;;5044457;28;20037;-76
2022/07/21 07:10:02;;;;;;;34.58;25.92;;;;;;;19.36;100.00;68929.41;5033325;28;20053;-76
2022/07/21 07:12:28;;;;;;;35.15;28.15;;;;;;;19.32;100.00;68917.31;5041370;28;20072;-76
2022/07/21 07:14:53;;;;;;;36.90;30.83;;;;;;;;;;5039847;28;20480;-76
2022/07/21 07:17:19;;;;;;;37.00;28.52;;;;;;;;;;5057862;28;20076;-76
2022/07/21 07:19:45;;;;;;;37.55;30.23;;;;;;;19.34;100.00;68919.63;5044154;28;20039;-76
2022/07/21 07:22:10;;;;;;;38.42;31.38;;;;;;;19.42;100.00;68933.59;5043443;28;20032;-77
2022/07/21 07:24:36;;;;;;;35.33;28.67;;;;;;;19.41;100.00;68931.88;5044432;28;20062;-76
2022/07/21 07:27:02;;;;;;;37.58;30.63;;;;;;;19.49;100.00;68941.56;5043818;28;20044;-77
2022/07/21 07:29:28;;;;;;;41.42;28.60;;;;;;;19.42;100.00;68933.00;5043216;28;20052;-77
2022/07/21 07:31:53;;;;;;;42.83;30.23;;;;;;;;;;5041200;28;20039;-76
2022/07/21 07:34:19;;;;;;;36.03;30.25;;;;;;;19.64;100.00;68958.16;5053371;28;20053;-77
2022/07/21 07:36:44;;;;;;;41.65;28.50;;;;;;;19.65;100.00;68958.72;5039012;28;20033;-76
2022/07/21 07:39:10;;;;;;;37.63;30.45;;;;;;;19.61;100.00;68955.28;5046419;28;20025;-78
2022/07/21 07:41:35;;;;;;;39.45;28.13;;;;;;;19.59;100.00;68952.44;5046310;28;20283;-76
2022/07/21 07:44:00;;;;;;;42.65;27.58;;;;;;;19.66;100.00;68959.88;5046507;28;20067;-75
2022/07/21 07:46:26;;;;;;;41.42;29.38;;;;;;;19.67;100.00;68961.03;5046062;28;20116;-75
2022/07/21 07:48:52;;;;;;;42.90;32.33;;;;;;;19.65;100.00;68958.72;5047150;28;20037;-75
2022/07/21 07:51:17;;;;;;;42.92;30.52;;;;;;;19.60;100.00;68948.19;5045156;28;20103;-75
2022/07/21 07:53:43;;;;;;;41.55;30.27;;;;;;;;;;5042505;28;20114;-76
2022/07/21 07:56:09;;;;;;;43.58;31.00;;;;;;;19.73;100.00;68962.47;5058231;28;20057;-76
2022/07/21 07:58:35;;;;;;;44.63;32.42;;;;;;;19.65;100.00;68958.72;5043401;28;20068;-76
2022/07/21 08:01:00;;;;;;;44.70;29.92;;;;;;;19.48;100.00;68940.44;5042714;28;20460;-76
2022/07/21 08:03:26;;;;;;;48.28;31.45;;;;;;;;;;5044055;28;20048;-76
2022/07/21 08:05:54;;;;;;;46.70;33.17;;;;;;;19.54;100.00;68946.72;5044197;28;20064;-76
2022/07/21 08:08:20;;;;;;;48.10;33.17;;;;;;;;;;5042631;28;20051;-75
2022/07/21 08:10:46;;;;;;;48.33;35.20;;;;;;;19.58;100.00;68951.84;5044006;28;20037;-75
2022/07/21 08:13:14;;;;;;;47.28;34.80;;;;;;;19.64;100.00;68952.19;5027911;28;20049;-76
2022/07/21 08:15:50;;;;;;;51.15;36.00;;;;;;;19.53;100.00;68946.13;5020241;28;20152;-78
2022/07/21 08:18:15;;;;;;;50.13;38.55;;;;;;;;;;4999147;28;20034;-79
2022/07/21 08:20:41;;;;;;;49.97;36.28;;;;;;;;;;5019550;28;20228;-77
2022/07/21 08:23:06;;;;;;;50.63;37.85;;;;;;;19.61;100.00;68955.28;5019386;28;20045;-78
2022/07/21 08:25:32;;;;;;;51.30;37.63;;;;;;;19.67;100.00;68961.03;5016487;28;20084;-77
2022/07/21 08:27:58;;;;;;;49.13;35.58;;;;;;;19.60;100.00;68948.19;5021152;28;20123;-77
2022/07/21 08:30:24;;;;;;;50.03;36.17;;;;;;;19.67;100.00;68961.03;5015299;28;20502;-77
2022/07/21 08:32:50;;;;;;;49.17;34.50;;;;;;;19.58;100.00;68954.56;5016735;28;20153;-76
2022/07/21 08:35:15;;;;;;;47.50;34.67;;;;;;;19.67;100.00;68961.03;5022734;28;20037;-79
2022/07/21 08:37:41;;;;;;;44.42;34.35;;;;;;;19.72;100.00;68967.31;5022513;28;20691;-78
2022/07/21 08:40:09;;;;;;;44.47;34.15;;;;;;;19.79;100.00;68974.72;5019907;28;20044;-77
2022/07/21 08:42:36;;;;;;;42.50;32.10;;;;;;;19.81;100.00;68977.03;5020119;28;20128;-78
2022/07/21 08:45:02;;;;;;;42.95;32.13;;;;;;;19.87;100.00;68986.03;5020853;28;20038;-76
2022/07/21 08:47:27;;;;;;;39.92;32.53;;;;;;;19.96;100.00;68988.75;5047481;28;20069;-77
2022/07/21 08:49:57;;;;;;;40.70;30.38;;;;;;;19.99;100.00;68997.03;5043281;28;20088;-79
2022/07/21 08:52:23;;;;;;;42.63;30.95;;;;;;;20.03;100.00;69002.19;5043955;28;20052;-78
2022/07/21 08:54:48;;;;;;;35.63;27.17;;;;;;;;;;5025807;28;20048;-78
2022/07/21 08:57:14;;;;;;;33.35;28.27;;;;;;;20.11;100.00;69005.34;5052557;28;20049;-77
2022/07/21 08:59:39;;;;;;;35.22;27.55;;;;;;;20.19;100.00;69013.91;5018744;28;20514;-77
2022/07/21 09:02:04;;;;;;;31.98;24.05;;;;;;;20.35;100.00;69037.63;5023666;28;20056;-78
2022/07/21 09:04:33;;;;;;;32.40;26.95;;;;;;;20.36;99.04;69032.78;5029867;28;20056;-76
2022/07/21 09:07:01;;;;;;;32.60;24.85;;;;;;;20.51;100.00;69050.53;5023647;28;20095;-74
2022/07/21 09:09:29;;;;;;;28.57;22.33;;;;;;;20.60;96.70;69059.66;5027168;28;20053;-76
2022/07/21 09:11:54;;;;;;;25.40;22.47;;;;;;;20.64;95.78;69064.81;5018964;28;20669;-75
2022/07/21 09:14:25;;;;;;;20.55;18.10;;;;;;;20.56;93.04;69055.09;5022332;28;20037;-77
2022/07/21 09:16:54;;;;;;;24.95;19.67;;;;;;;20.67;94.10;69073.66;5021283;28;20498;-78
2022/07/21 09:19:31;;;;;;;22.48;18.17;;;;;;;20.68;94.37;69074.22;5022449;28;20049;-76
2022/07/21 09:21:58;;;;;;;18.23;15.50;;;;;;;;;;5019466;28;20049;-76
2022/07/21 09:24:28;;;;;;;17.25;14.32;;;;;;;;;;5022215;28;20076;-77
2022/07/21 09:26:56;;;;;;;14.88;13.25;;;;;;;;;;5023634;28;20091;-76
2022/07/21 09:29:22;;;;;;;16.90;13.80;;;;;;;;;;5021272;28;20555;-77
2022/07/21 09:31:47;;;;;;;15.32;13.73;;;;;;;20.79;88.48;69080.84;5034302;28;20045;-77
2022/07/21 09:34:14;;;;;;;16.85;13.80;;;;;;;20.87;87.84;69095.97;5018924;28;20049;-75
2022/07/21 09:36:53;;;;;;;17.30;13.75;;;;;;;;;;5021430;28;20049;-78
2022/07/21 09:39:20;;;;;;;19.10;13.50;;;;;;;20.89;86.84;69090.16;5019806;28;20038;-76
2022/07/21 09:41:45;;;;;;;18.30;13.75;;;;;;;;;;5030314;28;20048;-77
2022/07/21 09:44:10;;;;;;;16.93;13.43;;;;;;;20.84;87.01;69087.13;5043480;28;20537;-77
2022/07/21 09:46:36;;;;;;;17.88;14.27;;;;;;;20.98;87.79;69102.00;5045937;28;20643;-77
2022/07/21 09:49:02;;;;;;;19.90;14.52;;;;;;;;;;5045294;28;20086;-77
2022/07/21 09:51:29;;;;;;;17.25;13.90;;;;;;;;;;5041408;28;20041;-75
2022/07/21 09:54:01;;;;;;;16.95;12.25;;;;;;;21.13;84.74;69124.56;5043661;28;20151;-76
2022/07/21 09:56:28;;;;;;;16.73;14.45;;;;;;;;;;5052722;28;20052;-77
2022/07/21 09:58:54;;;;;;;15.68;12.93;;;;;;;;;;5043614;28;20528;-75
2022/07/21 10:01:20;;;;;;;15.10;13.57;;;;;;;21.35;84.73;69149.75;5047947;28;20053;-76
2022/07/21 10:03:47;;;;;;;16.90;13.38;;;;;;;21.43;84.89;69152.34;5037526;28;20045;-78
2022/07/21 10:06:15;;;;;;;15.73;13.82;;;;;;;21.54;85.10;69164.94;5028874;28;20060;-77
2022/07/21 10:08:42;;;;;;;15.45;13.68;;;;;;;21.43;83.73;69157.78;5025597;28;20046;-78
2022/07/21 10:11:08;;;;;;;18.10;14.23;;;;;;;21.48;83.22;69163.50;5044410;28;20048;-77
2022/07/21 10:13:33;;;;;;;17.20;14.80;;;;;;;;;;5048689;28;20038;-78
2022/07/21 10:16:00;;;;;;;17.70;14.55;;;;;;;21.57;84.79;69168.38;5043658;28;20053;-77
2022/07/21 10:18:36;;;;;;;17.55;13.90;;;;;;;21.68;83.20;69185.81;5045074;28;20045;-76
2022/07/21 10:21:10;;;;;;;17.60;13.43;;;;;;;;;;5045456;28;20182;-78
2022/07/21 10:23:38;;;;;;;19.13;13.18;;;;;;;;;;5045870;28;20055;-77
2022/07/21 10:26:05;;;;;;;17.90;13.60;;;;;;;21.74;83.81;69193.25;5045080;28;20053;-77
2022/07/21 10:28:31;;;;;;;17.17;11.93;;;;;;;21.71;83.50;69189.81;5046952;28;20048;-78
2022/07/21 10:30:58;;;;;;;14.05;12.02;;;;;;;21.71;83.44;69183.84;5044423;28;20051;-78
2022/07/21 10:33:45;;;;;;;14.55;11.93;;;;;;;21.92;82.00;69207.28;5048607;28;20044;-77
2022/07/21 10:36:34;;;;;;;14.98;12.10;;;;;;;21.91;81.26;69206.16;5044357;28;20041;-77
2022/07/21 10:39:17;;;;;;;16.85;12.13;;;;;;;21.74;81.38;69187.25;5044359;28;20045;-78
2022/07/21 10:41:44;;;;;;;16.92;13.30;;;;;;;21.68;82.13;69180.97;5041154;28;20044;-76
2022/07/21 10:44:28;;;;;;;17.98;12.60;;;;;;;;;;5052005;28;20059;-77
2022/07/21 10:47:04;;;;;;;15.50;12.48;;;;;;;21.54;83.62;69162.25;5058773;28;20040;-78
2022/07/21 10:49:48;;;;;;;14.50;11.85;;;;;;;21.52;83.13;69168.66;5043036;28;20695;-78
2022/07/21 10:52:32;;;;;;;15.45;12.35;;;;;;;;;;5025752;28;20148;-77
2022/07/21 10:55:10;;;;;;;18.20;14.00;;;;;;;21.59;82.75;69179.38;5040624;28;20048;-78
2022/07/21 10:57:46;;;;;;;16.95;14.82;;;;;;;21.69;84.41;69182.09;5023877;28;20041;-77
2022/07/21 11:00:28;;;;;;;17.02;14.45;;;;;;;;;;5043393;28;20083;-78
2022/07/21 11:02:58;;;;;;;17.65;14.63;;;;;;;;;;5023004;28;20072;-78
2022/07/21 11:05:26;;;;;;;17.77;12.68;;;;;;;21.59;82.78;69170.69;5020943;28;20088;-76
2022/07/21 11:08:10;;;;;;;16.08;12.05;;;;;;;;;;5054940;28;20041;-77
2022/07/21 11:10:42;;;;;;;16.27;12.63;;;;;;;21.68;84.07;69186.38;5021356;28;20056;-78
2022/07/21 11:13:07;;;;;;;16.13;12.77;;;;;;;;;;5036456;28;20637;-77
2022/07/21 11:15:51;;;;;;;17.55;13.93;;;;;;;21.70;82.89;69182.69;5021818;28;20092;-78
2022/07/21 11:18:24;;;;;;;17.08;12.48;;;;;;;21.68;83.56;69188.53;5043697;28;20050;-76
2022/07/21 11:21:19;;;;;;;17.67;13.05;;;;;;;21.62;84.38;69171.97;5038969;28;20055;-76
2022/07/21 11:23:49;;;;;;;14.80;13.15;;;;;;;21.50;85.29;69165.78;5029514;28;20095;-77
2022/07/21 11:26:23;;;;;;;14.50;11.45;;;;;;;21.40;85.94;69154.91;5026033;28;20118;-76
2022/07/21 11:29:04;;;;;;;15.45;11.63;;;;;;;21.43;86.28;69158.34;5024869;28;20072;-76
2022/07/21 11:31:50;;;;;;;12.57;10.60;;;;;;;21.27;87.36;69140.03;5019605;28;20136;-77
2022/07/21 11:34:16;;;;;;;15.57;10.73;;;;;;;21.19;89.81;69132.00;4981942;28;20037;-77
2022/07/21 11:36:42;;;;;;;16.10;12.70;;;;;;;;;;5025114;28;20956;-76
2022/07/21 11:39:13;;;;;;;15.75;13.25;;;;;;;20.99;92.08;69103.16;5022912;28;20109;-78
2022/07/21 11:41:40;;;;;;;16.08;12.27;;;;;;;21.04;91.56;69114.28;5022096;28;20047;-77
2022/07/21 11:44:08;;;;;;;17.25;10.95;;;;;;;20.93;91.22;69097.41;5023391;28;20045;-78
2022/07/21 11:46:50;;;;;;;14.98;11.93;;;;;;;;;;5024838;28;20053;-78
2022/07/21 11:49:16;;;;;;;14.23;11.88;;;;;;;20.71;95.58;69070.13;5038295;28;20059;-76